Time;durP1;ratioP1;P1;durP2;ratioP2;P2;SDS_P1;SDS_P2;PMS_P1;PMS_P2;Temp;Humidity;BMP_temperature;BMP_pressure;BME280_temperature;BME280_humidity;BME280_pressure;Samples;Min_cycle;Max_cycle;Signal;HPM_P1;HPM_P2
2022/03/07 00:01:27;;;;;;;16.70;11.45;;;2.40;88.20;;;;;;6124381;23;92931;-69
2022/03/07 00:03:58;;;;;;;18.70;12.75;;;2.30;88.10;;;;;;6122803;23;106127;-69
2022/03/07 00:06:25;;;;;;;19.85;12.25;;;2.30;88.20;;;;;;6074750;23;92456;-68
2022/03/07 00:08:52;;;;;;;18.45;12.02;;;2.30;88.10;;;;;;6121920;23;95597;-72
2022/03/07 00:11:20;;;;;;;17.30;11.23;;;2.20;88.20;;;;;;6123369;23;97924;-68
2022/03/07 00:13:47;;;;;;;15.07;11.30;;;2.20;88.20;;;;;;6123914;23;92518;-72
2022/03/07 00:16:15;;;;;;;18.67;11.80;;;2.20;88.20;;;;;;6123779;23;92470;-69
2022/03/07 00:18:42;;;;;;;20.48;12.63;;;2.10;88.50;;;;;;6125265;22;93212;-68
2022/03/07 00:21:10;;;;;;;17.50;11.98;;;2.10;88.80;;;;;;6123384;23;95626;-72
2022/03/07 00:23:37;;;;;;;17.73;11.82;;;2.10;89.10;;;;;;6099389;23;92421;-72
2022/03/07 00:26:05;;;;;;;17.92;11.98;;;2.00;89.10;;;;;;6124173;23;91643;-69
2022/03/07 00:28:33;;;;;;;17.10;12.85;;;2.00;89.30;;;;;;6124088;23;93517;-72
2022/03/07 00:31:00;;;;;;;21.08;13.20;;;2.00;89.60;;;;;;6122727;23;109156;-72
2022/03/07 00:33:27;;;;;;;23.40;13.02;;;1.90;89.60;;;;;;6122185;23;94794;-68
2022/03/07 00:35:54;;;;;;;20.70;13.88;;;1.90;89.80;;;;;;6123665;23;92526;-72
2022/03/07 00:38:22;;;;;;;20.08;14.02;;;1.90;90.00;;;;;;6098734;23;95798;-72
2022/03/07 00:40:49;;;;;;;20.30;13.73;;;1.90;90.00;;;;;;6123389;23;94205;-71
2022/03/07 00:43:16;;;;;;;26.27;13.77;;;1.90;90.10;;;;;;6074832;23;92751;-72
2022/03/07 00:45:43;;;;;;;20.30;12.95;;;1.80;90.20;;;;;;6123644;23;92586;-68
2022/03/07 00:48:11;;;;;;;19.40;12.52;;;1.80;90.10;;;;;;6098599;23;96767;-68
2022/03/07 00:50:43;;;;;;;16.20;12.05;;;1.80;90.10;;;;;;6123441;23;95340;-72
2022/03/07 00:53:17;;;;;;;17.42;12.90;;;1.70;90.10;;;;;;6123342;23;92387;-72
2022/03/07 00:55:44;;;;;;;21.42;13.90;;;1.80;90.10;;;;;;6123526;23;92388;-68
2022/03/07 00:58:13;;;;;;;20.05;11.90;;;1.80;90.10;;;;;;6121375;23;98358;-72
2022/03/07 01:00:41;;;;;;;17.92;12.48;;;1.70;90.10;;;;;;6123535;23;97827;-72
2022/03/07 01:03:10;;;;;;;23.10;11.77;;;1.70;90.40;;;;;;6123239;23;92766;-72
2022/03/07 01:05:38;;;;;;;17.90;12.10;;;1.70;90.00;;;;;;6123431;23;92330;-72
2022/03/07 01:08:06;;;;;;;19.52;13.35;;;1.70;90.00;;;;;;6125011;22;93334;-72
2022/03/07 01:10:34;;;;;;;19.50;12.77;;;1.70;90.00;;;;;;6123194;23;95657;-72
2022/03/07 01:13:01;;;;;;;22.65;12.95;;;1.60;90.00;;;;;;6123288;23;92443;-72
2022/03/07 01:15:29;;;;;;;18.75;12.60;;;1.60;90.20;;;;;;6099739;23;91655;-72
2022/03/07 01:17:59;;;;;;;18.38;12.13;;;1.60;90.30;;;;;;6123561;23;93085;-72
2022/03/07 01:20:29;;;;;;;15.68;11.55;;;1.50;90.30;;;;;;6123423;23;95572;-72
2022/03/07 01:22:56;;;;;;;15.73;10.60;;;1.50;90.40;;;;;;6097553;23;94935;-68
2022/03/07 01:25:24;;;;;;;14.63;10.73;;;1.50;90.50;;;;;;6123796;23;92876;-72
2022/03/07 01:27:51;;;;;;;15.90;11.95;;;1.50;90.60;;;;;;6124957;22;92936;-68
2022/03/07 01:30:21;;;;;;;15.88;10.90;;;1.40;90.60;;;;;;6124759;23;92924;-68
2022/03/07 01:32:48;;;;;;;14.43;10.65;;;1.40;90.70;;;;;;6125301;22;92386;-72
2022/03/07 01:35:15;;;;;;;15.18;10.55;;;1.40;90.60;;;;;;6125218;22;92391;-72
2022/03/07 01:37:42;;;;;;;16.95;11.20;;;1.40;90.60;;;;;;6074277;23;94215;-72
2022/03/07 01:40:09;;;;;;;17.23;10.80;;;1.40;90.60;;;;;;6125515;22;92948;-72
2022/03/07 01:42:36;;;;;;;13.60;10.50;;;1.40;90.50;;;;;;6099131;23;92596;-72
2022/03/07 01:45:16;;;;;;;15.40;10.85;;;1.30;90.50;;;;;;6124503;22;92418;-72
2022/03/07 01:47:43;;;;;;;17.00;10.50;;;1.30;90.30;;;;;;6123393;22;95814;-71
2022/03/07 01:50:12;;;;;;;16.73;10.60;;;1.20;90.20;;;;;;6122772;23;97315;-68
2022/03/07 01:52:44;;;;;;;16.50;10.52;;;1.20;90.10;;;;;;6123633;23;92504;-72
2022/03/07 01:55:12;;;;;;;17.02;10.85;;;1.20;90.10;;;;;;6123189;23;92566;-68
2022/03/07 01:58:05;;;;;;;11.73;9.40;;;1.20;90.20;;;;;;6121110;23;93964;-68
2022/03/07 02:00:33;;;;;;;14.93;10.20;;;1.20;90.20;;;;;;6123563;23;95216;-68
2022/03/07 02:03:01;;;;;;;15.70;10.80;;;1.20;90.20;;;;;;6098063;23;107730;-71
2022/03/07 02:05:37;;;;;;;11.70;9.48;;;1.10;90.10;;;;;;6124253;23;91785;-72
2022/03/07 02:08:09;;;;;;;15.75;10.18;;;1.10;90.10;;;;;;6123456;23;95329;-68
2022/03/07 02:10:43;;;;;;;15.13;10.40;;;1.10;90.10;;;;;;6123118;23;95834;-68
2022/03/07 02:13:15;;;;;;;12.38;10.02;;;1.10;90.00;;;;;;6097200;23;95279;-72
2022/03/07 02:15:56;;;;;;;13.70;9.52;;;1.00;89.90;;;;;;6099192;23;92448;-68
2022/03/07 02:18:30;;;;;;;14.77;10.63;;;1.00;89.90;;;;;;6123629;23;95683;-68
2022/03/07 02:21:11;;;;;;;13.23;10.05;;;0.90;89.80;;;;;;6122811;23;95167;-68
2022/03/07 02:23:49;;;;;;;14.73;10.73;;;0.90;89.90;;;;;;6122909;23;92464;-72
2022/03/07 02:26:18;;;;;;;15.63;10.05;;;0.90;90.00;;;;;;6098246;23;92547;-69
2022/03/07 02:28:46;;;;;;;13.20;10.27;;;0.90;90.10;;;;;;6097451;23;95499;-69
2022/03/07 02:31:18;;;;;;;18.55;10.27;;;0.90;90.20;;;;;;6098891;23;92711;-72
2022/03/07 02:33:47;;;;;;;14.63;9.75;;;0.80;90.10;;;;;;6123176;23;92436;-69
2022/03/07 02:36:17;;;;;;;13.70;9.60;;;0.80;90.00;;;;;;6123413;23;92465;-69
2022/03/07 02:38:44;;;;;;;14.38;10.07;;;0.80;90.00;;;;;;6097135;23;98205;-69
2022/03/07 02:41:11;;;;;;;14.63;10.50;;;0.80;89.90;;;;;;6097587;23;97893;-69
2022/03/07 02:43:38;;;;;;;16.70;9.98;;;0.70;89.80;;;;;;6122840;23;92809;-68
2022/03/07 02:46:05;;;;;;;14.20;9.50;;;0.70;89.80;;;;;;6098167;23;92628;-69
2022/03/07 02:48:32;;;;;;;16.05;10.13;;;0.70;89.70;;;;;;6122754;23;96198;-69
2022/03/07 02:50:59;;;;;;;14.38;10.27;;;0.70;89.70;;;;;;6122343;23;94503;-72
2022/03/07 02:53:26;;;;;;;13.77;10.35;;;0.70;89.80;;;;;;6122993;23;92355;-69
2022/03/07 02:55:54;;;;;;;12.00;9.57;;;0.70;89.90;;;;;;6124868;23;91669;-72
2022/03/07 02:58:22;;;;;;;14.65;10.00;;;0.70;89.90;;;;;;6123313;23;95838;-72
2022/03/07 03:00:49;;;;;;;15.90;10.13;;;0.60;89.80;;;;;;6122203;23;114002;-72
2022/03/07 03:03:16;;;;;;;16.30;10.27;;;0.60;89.90;;;;;;6122644;23;94737;-69
2022/03/07 03:05:43;;;;;;;14.73;10.88;;;0.60;90.00;;;;;;6097920;23;92463;-72
2022/03/07 03:08:10;;;;;;;13.55;9.90;;;0.60;90.10;;;;;;6124728;22;93210;-72
2022/03/07 03:10:37;;;;;;;15.80;10.43;;;0.60;90.30;;;;;;6125219;22;92945;-72
2022/03/07 03:13:04;;;;;;;15.98;11.32;;;0.60;90.40;;;;;;6124783;22;92350;-69
2022/03/07 03:15:31;;;;;;;12.07;9.48;;;0.60;90.40;;;;;;6123031;23;93137;-69
2022/03/07 03:17:58;;;;;;;12.63;10.48;;;0.60;90.40;;;;;;6124902;23;93190;-69
2022/03/07 03:20:25;;;;;;;13.35;9.32;;;0.60;90.30;;;;;;6125997;22;92970;-69
2022/03/07 03:22:52;;;;;;;14.38;10.18;;;0.50;90.20;;;;;;6125700;23;100972;-69
2022/03/07 03:25:19;;;;;;;14.48;9.73;;;0.50;90.20;;;;;;6099016;23;92560;-72
2022/03/07 03:27:46;;;;;;;13.00;10.57;;;0.50;90.20;;;;;;6124955;22;95900;-72
2022/03/07 03:30:14;;;;;;;11.77;9.13;;;0.50;90.20;;;;;;6125511;23;94306;-72
2022/03/07 03:32:41;;;;;;;15.40;11.05;;;0.50;90.10;;;;;;6126478;22;92415;-68
2022/03/07 03:35:08;;;;;;;18.15;11.13;;;0.50;90.10;;;;;;6099677;23;92535;-72
2022/03/07 03:37:36;;;;;;;14.77;10.35;;;0.50;90.30;;;;;;6123326;23;95609;-71
2022/03/07 03:40:05;;;;;;;17.63;10.45;;;0.40;90.30;;;;;;6123441;23;95480;-71
2022/03/07 03:42:32;;;;;;;11.57;9.80;;;0.40;90.30;;;;;;6125560;22;95860;-72
2022/03/07 03:44:59;;;;;;;12.35;10.13;;;0.40;90.40;;;;;;6125580;23;91659;-72
2022/03/07 03:47:26;;;;;;;12.85;9.88;;;0.40;90.10;;;;;;6098636;23;95627;-72
2022/03/07 03:49:53;;;;;;;13.38;10.52;;;0.40;90.10;;;;;;6099434;23;95888;-68
2022/03/07 03:52:20;;;;;;;14.63;10.32;;;0.40;90.00;;;;;;6097526;23;94802;-69
2022/03/07 03:54:47;;;;;;;15.10;10.38;;;0.40;90.00;;;;;;6125381;22;92401;-69
2022/03/07 03:57:14;;;;;;;14.02;10.20;;;0.40;90.00;;;;;;6125120;22;93189;-72
2022/03/07 03:59:41;;;;;;;17.48;10.70;;;0.40;89.80;;;;;;6125389;22;93023;-72
2022/03/07 04:02:08;;;;;;;14.77;10.18;;;0.40;90.10;;;;;;6125795;22;92638;-69
2022/03/07 04:04:35;;;;;;;13.25;10.18;;;0.40;89.80;;;;;;6123173;23;92443;-68
2022/03/07 04:07:05;;;;;;;20.83;10.98;;;0.40;89.80;;;;;;6123484;23;93180;-69
2022/03/07 04:09:32;;;;;;;16.33;10.68;;;0.40;89.90;;;;;;6098436;23;106148;-68
2022/03/07 04:11:59;;;;;;;20.50;11.75;;;0.40;90.00;;;;;;6123718;23;92494;-69
2022/03/07 04:14:26;;;;;;;19.70;11.82;;;0.40;90.30;;;;;;6123998;23;92446;-72
2022/03/07 04:16:54;;;;;;;20.77;12.95;;;0.40;90.00;;;;;;6123632;22;95511;-69
2022/03/07 04:19:21;;;;;;;21.90;13.65;;;0.40;90.10;;;;;;6124782;22;95469;-72
2022/03/07 04:21:48;;;;;;;26.67;15.30;;;0.40;90.20;;;;;;6124107;23;92844;-69
2022/03/07 04:24:15;;;;;;;29.50;15.65;;;0.40;90.20;;;;;;6125406;22;92498;-69
2022/03/07 04:26:43;;;;;;;32.95;17.15;;;0.40;90.20;;;;;;6124624;22;93126;-69
2022/03/07 04:29:10;;;;;;;31.27;16.95;;;0.50;90.20;;;;;;6124991;22;92880;-72
2022/03/07 04:31:40;;;;;;;35.10;17.55;;;0.50;90.30;;;;;;6123111;23;92611;-69
2022/03/07 04:34:08;;;;;;;87.53;19.55;;;0.50;90.40;;;;;;6126016;22;91692;-72
2022/03/07 04:36:37;;;;;;;37.33;17.23;;;0.50;90.40;;;;;;6125475;22;93248;-72
2022/03/07 04:39:05;;;;;;;31.10;15.95;;;0.60;90.50;;;;;;6123987;23;93045;-71
2022/03/07 04:41:33;;;;;;;34.65;16.65;;;0.60;90.60;;;;;;6121742;23;94868;-68
2022/03/07 04:44:00;;;;;;;34.65;17.52;;;0.60;90.60;;;;;;6123535;23;92423;-68
2022/03/07 04:46:27;;;;;;;38.90;18.77;;;0.60;90.50;;;;;;6098431;23;95827;-68
2022/03/07 04:48:57;;;;;;;34.88;18.23;;;0.60;90.40;;;;;;6123971;23;93017;-72
2022/03/07 04:51:24;;;;;;;30.58;17.83;;;0.60;90.40;;;;;;6098498;23;92325;-71
2022/03/07 04:53:51;;;;;;;40.08;18.52;;;0.60;90.40;;;;;;6125750;22;92387;-72
2022/03/07 04:56:18;;;;;;;39.58;17.73;;;0.60;90.40;;;;;;6123074;23;102667;-69
2022/03/07 04:58:45;;;;;;;36.50;17.38;;;0.60;90.40;;;;;;6123368;23;96037;-69
2022/03/07 05:01:14;;;;;;;35.80;15.98;;;0.50;90.40;;;;;;6125360;22;92395;-71
2022/03/07 05:03:41;;;;;;;34.33;16.75;;;0.50;90.40;;;;;;6123632;23;92722;-69
2022/03/07 05:06:09;;;;;;;29.08;15.80;;;0.50;90.50;;;;;;6097141;23;98032;-69
2022/03/07 05:08:38;;;;;;;29.83;15.48;;;0.50;90.50;;;;;;6124844;22;95438;-72
2022/03/07 05:11:05;;;;;;;27.20;14.98;;;0.50;90.50;;;;;;6125235;22;92259;-72
2022/03/07 05:13:33;;;;;;;29.23;16.42;;;0.50;90.50;;;;;;6123423;23;92468;-72
2022/03/07 05:15:59;;;;;;;23.55;14.18;;;0.60;90.40;;;;;;6098840;23;93240;-69
2022/03/07 05:18:26;;;;;;;26.10;16.23;;;0.60;90.30;;;;;;6123260;23;92898;-69
2022/03/07 05:20:53;;;;;;;26.52;14.63;;;0.60;90.20;;;;;;6123624;23;92320;-72
2022/03/07 05:23:23;;;;;;;26.23;14.20;;;0.60;90.20;;;;;;6123231;23;101973;-68
2022/03/07 05:25:50;;;;;;;25.17;15.00;;;0.60;90.10;;;;;;6122949;23;92926;-68
2022/03/07 05:28:17;;;;;;;21.73;14.02;;;0.60;90.10;;;;;;6125117;22;93010;-72
2022/03/07 05:30:44;;;;;;;31.42;15.68;;;0.60;90.10;;;;;;6123747;22;95549;-72
2022/03/07 05:33:11;;;;;;;25.95;14.23;;;0.60;90.10;;;;;;6099504;23;92404;-73
2022/03/07 05:35:38;;;;;;;25.65;14.73;;;0.60;90.00;;;;;;6124885;22;93164;-71
2022/03/07 05:38:05;;;;;;;26.98;15.38;;;0.60;89.80;;;;;;6122799;23;95529;-69
2022/03/07 05:40:32;;;;;;;23.88;14.68;;;0.60;89.80;;;;;;6123209;23;92433;-71
2022/03/07 05:42:59;;;;;;;28.45;15.40;;;0.50;89.90;;;;;;6125157;22;92339;-69
2022/03/07 05:45:26;;;;;;;27.67;15.52;;;0.50;90.10;;;;;;6123353;23;93154;-71
2022/03/07 05:47:53;;;;;;;27.85;15.23;;;0.50;90.20;;;;;;6123797;23;95572;-71
2022/03/07 05:50:20;;;;;;;26.88;15.10;;;0.50;90.30;;;;;;6124663;22;98992;-72
2022/03/07 05:52:47;;;;;;;25.52;14.82;;;0.50;90.40;;;;;;6124697;23;92598;-69
2022/03/07 05:55:14;;;;;;;26.27;15.95;;;0.50;90.40;;;;;;6123070;22;95765;-71
2022/03/07 05:57:41;;;;;;;27.95;16.02;;;0.50;90.60;;;;;;6122943;23;95154;-69
2022/03/07 06:00:10;;;;;;;33.13;17.13;;;0.50;90.70;;;;;;6098522;23;94339;-72
2022/03/07 06:02:37;;;;;;;41.60;18.67;;;0.50;90.80;;;;;;6124933;23;92441;-72
2022/03/07 06:05:05;;;;;;;35.08;17.20;;;0.50;90.90;;;;;;6122894;23;96124;-72
2022/03/07 06:07:32;;;;;;;31.33;17.73;;;0.60;91.10;;;;;;6125061;22;93059;-72
2022/03/07 06:09:59;;;;;;;30.70;16.67;;;0.60;91.10;;;;;;6122984;23;97771;-72
2022/03/07 06:12:26;;;;;;;76.68;20.95;;;0.60;91.20;;;;;;6125396;22;91669;-71
2022/03/07 06:14:54;;;;;;;112.47;23.67;;;0.60;91.40;;;;;;6124662;22;93158;-69
2022/03/07 06:17:21;;;;;;;56.35;19.33;;;0.60;91.50;;;;;;6122947;23;92906;-68
2022/03/07 06:19:48;;;;;;;56.00;17.90;;;0.70;91.60;;;;;;6096713;23;95332;-72
2022/03/07 06:22:15;;;;;;;32.40;16.15;;;0.70;91.60;;;;;;6125167;22;92938;-72
2022/03/07 06:24:42;;;;;;;32.67;16.42;;;0.70;91.60;;;;;;6124679;23;93101;-72
2022/03/07 06:27:09;;;;;;;28.65;15.77;;;0.70;91.70;;;;;;6124433;22;105713;-72
2022/03/07 06:29:36;;;;;;;23.23;14.90;;;0.70;91.70;;;;;;6123649;23;92392;-72
2022/03/07 06:32:04;;;;;;;24.70;14.77;;;0.70;91.70;;;;;;6098852;23;92562;-72
2022/03/07 06:34:33;;;;;;;23.23;13.70;;;0.90;91.80;;;;;;6122894;23;95700;-69
2022/03/07 06:37:01;;;;;;;20.98;13.52;;;1.00;91.80;;;;;;6122499;23;98137;-69
2022/03/07 06:39:28;;;;;;;22.75;14.20;;;1.10;91.80;;;;;;6124525;22;92307;-69
2022/03/07 06:41:55;;;;;;;17.85;14.30;;;1.20;91.70;;;;;;6124491;22;92422;-72
2022/03/07 06:44:23;;;;;;;23.77;16.02;;;1.30;91.80;;;;;;6122704;22;104247;-69
2022/03/07 06:46:50;;;;;;;20.50;13.35;;;1.40;91.50;;;;;;6123821;23;95326;-69
2022/03/07 06:49:17;;;;;;;22.13;12.55;;;1.50;91.40;;;;;;6124307;23;92295;-69
2022/03/07 06:51:44;;;;;;;20.42;13.88;;;1.60;91.20;;;;;;6122849;23;92476;-69
2022/03/07 06:54:11;;;;;;;20.33;12.68;;;1.70;90.80;;;;;;6125375;22;93169;-69
2022/03/07 06:56:38;;;;;;;22.48;14.95;;;1.80;90.60;;;;;;6124284;23;93960;-72
2022/03/07 06:59:05;;;;;;;20.15;12.85;;;2.00;90.40;;;;;;6125925;22;92291;-72
2022/03/07 07:01:32;;;;;;;20.25;12.68;;;2.10;90.00;;;;;;6125077;23;91704;-72
2022/03/07 07:03:59;;;;;;;20.55;13.18;;;2.20;89.70;;;;;;6124180;23;92481;-72
2022/03/07 07:06:26;;;;;;;18.70;12.27;;;2.30;89.30;;;;;;6125828;22;92910;-72
2022/03/07 07:08:53;;;;;;;19.95;12.68;;;2.50;89.20;;;;;;6097691;23;94868;-72
2022/03/07 07:11:20;;;;;;;15.80;11.57;;;2.70;89.10;;;;;;6099392;23;92371;-69
2022/03/07 07:13:47;;;;;;;15.98;12.13;;;3.00;89.00;;;;;;6123721;23;93179;-72
2022/03/07 07:16:14;;;;;;;13.57;12.18;;;3.20;88.50;;;;;;6125436;22;93001;-69
2022/03/07 07:18:41;;;;;;;14.02;12.30;;;3.50;88.10;;;;;;6125254;23;92375;-69
2022/03/07 07:21:08;;;;;;;12.40;11.20;;;3.70;87.60;;;;;;6125566;23;92390;-69
2022/03/07 07:23:37;;;;;;;12.90;11.38;;;4.00;86.90;;;;;;6125100;22;93169;-69
2022/03/07 07:26:05;;;;;;;12.07;9.95;;;4.30;87.10;;;;;;6125223;22;92978;-69
2022/03/07 07:28:33;;;;;;;13.68;9.90;;;4.70;85.80;;;;;;6126102;22;92409;-69
2022/03/07 07:31:00;;;;;;;11.85;10.32;;;5.00;84.80;;;;;;6125677;22;92965;-70
2022/03/07 07:33:27;;;;;;;12.60;10.25;;;5.30;83.50;;;;;;6123669;23;95416;-69
2022/03/07 07:35:54;;;;;;;13.13;11.10;;;5.40;82.50;;;;;;6124852;22;95371;-70
2022/03/07 07:38:24;;;;;;;14.50;10.77;;;5.50;82.00;;;;;;6125434;22;93187;-73
2022/03/07 07:40:51;;;;;;;17.15;11.13;;;5.60;81.80;;;;;;6124260;23;92337;-73
2022/03/07 07:43:18;;;;;;;12.43;11.07;;;5.50;81.80;;;;;;6125826;22;93031;-73
2022/03/07 07:45:45;;;;;;;13.48;11.10;;;5.50;81.90;;;;;;6124382;23;93101;-73
2022/03/07 07:48:12;;;;;;;14.65;11.15;;;5.60;82.30;;;;;;6124462;23;92448;-73
2022/03/07 07:50:39;;;;;;;17.77;10.85;;;5.70;82.40;;;;;;6124686;23;91746;-73
2022/03/07 07:53:06;;;;;;;13.48;11.43;;;5.80;82.20;;;;;;6125596;22;93240;-73
2022/03/07 07:55:33;;;;;;;13.82;9.90;;;5.90;82.00;;;;;;6126001;22;92794;-73
2022/03/07 07:58:01;;;;;;;13.18;10.50;;;6.10;81.90;;;;;;6123516;23;95224;-73
2022/03/07 08:00:28;;;;;;;12.30;10.98;;;6.30;81.50;;;;;;6124268;23;92562;-73
2022/03/07 08:02:55;;;;;;;13.48;11.52;;;6.40;81.20;;;;;;6125622;22;93137;-74
2022/03/07 08:05:22;;;;;;;12.13;10.95;;;6.70;80.90;;;;;;6124220;23;92914;-73
2022/03/07 08:07:50;;;;;;;14.35;12.82;;;7.00;80.50;;;;;;6126000;22;92719;-73
2022/03/07 08:10:18;;;;;;;15.55;14.15;;;7.30;79.90;;;;;;6126054;22;92399;-73
2022/03/07 08:12:45;;;;;;;13.50;12.32;;;7.70;79.10;;;;;;6123885;23;95780;-74
2022/03/07 08:15:17;;;;;;;17.52;15.55;;;8.20;77.50;;;;;;6124763;23;94545;-73
2022/03/07 08:17:46;;;;;;;17.23;15.45;;;8.60;76.60;;;;;;6125927;22;92415;-73
2022/03/07 08:20:13;;;;;;;16.88;15.43;;;9.10;75.40;;;;;;6125892;22;92410;-74
2022/03/07 08:22:42;;;;;;;15.10;13.90;;;9.50;74.50;;;;;;6122084;23;109196;-74
2022/03/07 08:25:10;;;;;;;14.90;13.90;;;9.90;73.30;;;;;;6124153;23;95334;-74
2022/03/07 08:27:37;;;;;;;13.55;12.55;;;10.20;72.00;;;;;;6099418;23;92401;-74
2022/03/07 08:30:07;;;;;;;8.30;7.57;;;10.50;71.10;;;;;;6125579;22;92446;-74
2022/03/07 08:32:35;;;;;;;8.68;7.85;;;10.60;70.10;;;;;;6125107;23;94322;-74
2022/03/07 08:35:04;;;;;;;9.90;8.45;;;10.50;69.90;;;;;;6126238;22;92797;-74
2022/03/07 08:37:32;;;;;;;8.68;7.75;;;10.40;69.80;;;;;;6126595;23;92339;-74
2022/03/07 08:40:00;;;;;;;8.70;7.80;;;10.30;69.70;;;;;;6126491;22;91657;-69
2022/03/07 08:42:27;;;;;;;7.55;6.47;;;10.10;69.80;;;;;;6124015;23;92982;-70
2022/03/07 08:44:54;;;;;;;8.18;6.82;;;9.80;69.90;;;;;;6074486;23;108846;-70
2022/03/07 08:47:21;;;;;;;8.00;6.60;;;9.50;70.70;;;;;;6124486;22;94780;-70
2022/03/07 08:49:59;;;;;;;8.30;6.13;;;9.20;71.30;;;;;;6125720;22;92423;-69
2022/03/07 08:52:26;;;;;;;7.05;5.78;;;8.90;71.80;;;;;;6124595;22;93161;-70
2022/03/07 08:54:53;;;;;;;8.95;6.60;;;8.50;73.20;;;;;;6124136;23;92711;-70
2022/03/07 08:57:20;;;;;;;7.47;5.80;;;8.20;74.00;;;;;;6123546;23;92521;-69
2022/03/07 08:59:47;;;;;;;6.85;5.75;;;8.00;74.80;;;;;;6125584;22;92427;-70
2022/03/07 09:02:14;;;;;;;6.78;4.53;;;7.70;74.90;;;;;;6123591;23;93107;-69
2022/03/07 09:05:18;;;;;;;6.97;4.40;;;7.50;75.90;;;;;;6124037;23;95675;-70
2022/03/07 09:07:50;;;;;;;8.05;4.95;;;7.30;76.60;;;;;;6081367;23;93648;-73
2022/03/07 09:10:17;;;;;;;6.97;5.05;;;7.10;77.70;;;;;;6124232;23;92469;-74
2022/03/07 09:12:44;;;;;;;8.52;5.50;;;7.00;78.40;;;;;;6124160;22;95502;-73
2022/03/07 09:15:14;;;;;;;7.20;4.60;;;6.90;79.10;;;;;;6125537;23;95402;-74
2022/03/07 09:17:42;;;;;;;8.48;5.35;;;6.80;79.60;;;;;;6124831;23;92465;-74
2022/03/07 09:20:11;;;;;;;10.07;6.72;;;6.80;80.00;;;;;;6126493;22;92349;-74
2022/03/07 09:22:39;;;;;;;7.15;5.20;;;6.80;80.40;;;;;;6124094;23;94093;-74
2022/03/07 09:25:06;;;;;;;9.02;5.82;;;6.80;80.90;;;;;;6125732;22;92991;-74
2022/03/07 09:27:35;;;;;;;6.40;5.25;;;6.80;81.00;;;;;;6124898;23;92468;-74
2022/03/07 09:30:04;;;;;;;7.30;5.25;;;6.80;81.20;;;;;;6124603;23;93119;-74
2022/03/07 09:32:32;;;;;;;9.82;5.57;;;6.90;81.40;;;;;;6124543;23;93229;-74
2022/03/07 09:34:59;;;;;;;5.72;3.40;;;6.90;81.30;;;;;;6124177;23;95276;-74
2022/03/07 09:37:26;;;;;;;5.22;3.40;;;7.00;81.60;;;;;;6123448;23;94759;-74
2022/03/07 09:39:53;;;;;;;4.20;3.65;;;7.00;81.50;;;;;;6124426;23;92469;-74
2022/03/07 09:42:21;;;;;;;4.70;3.10;;;7.10;81.80;;;;;;6099950;23;93159;-74
2022/03/07 09:44:49;;;;;;;10.77;3.55;;;7.10;81.20;;;;;;6126053;22;92895;-74
2022/03/07 09:47:16;;;;;;;7.15;3.53;;;7.20;81.00;;;;;;6099554;23;92321;-74
2022/03/07 09:49:43;;;;;;;6.72;3.15;;;7.30;80.90;;;;;;6126202;22;92539;-74
2022/03/07 09:52:11;;;;;;;4.90;2.95;;;7.40;80.40;;;;;;6123524;23;95589;-74
2022/03/07 09:54:38;;;;;;;4.95;3.00;;;7.50;80.30;;;;;;6124847;23;92815;-74
2022/03/07 09:57:05;;;;;;;7.38;3.13;;;7.50;79.90;;;;;;6126059;22;92319;-74
2022/03/07 09:59:34;;;;;;;10.73;3.65;;;7.60;79.90;;;;;;6124569;23;92433;-74
2022/03/07 10:02:04;;;;;;;5.32;3.22;;;7.80;79.40;;;;;;6122492;23;98322;-74
2022/03/07 10:04:39;;;;;;;5.03;3.20;;;8.00;79.30;;;;;;6125769;22;96489;-74
2022/03/07 10:07:06;;;;;;;5.28;3.28;;;8.20;78.80;;;;;;6125245;22;92427;-70
2022/03/07 10:09:33;;;;;;;4.30;3.13;;;8.20;77.80;;;;;;6123629;23;92498;-70
2022/03/07 10:12:00;;;;;;;8.23;3.45;;;8.30;77.60;;;;;;6125090;22;93217;-71
2022/03/07 10:14:32;;;;;;;4.95;3.45;;;8.30;77.70;;;;;;6074497;23;93981;-71
2022/03/07 10:16:59;;;;;;;6.75;3.97;;;8.50;77.40;;;;;;6124046;23;92359;-75
2022/03/07 10:19:26;;;;;;;5.55;3.03;;;8.50;77.00;;;;;;6099872;23;91614;-75
2022/03/07 10:21:53;;;;;;;4.70;3.70;;;8.60;76.50;;;;;;6124132;23;93241;-75
2022/03/07 10:24:37;;;;;;;5.60;3.70;;;8.60;76.40;;;;;;6123599;23;95445;-75
2022/03/07 10:27:04;;;;;;;5.30;3.53;;;8.60;76.10;;;;;;6124592;22;94886;-75
2022/03/07 10:29:31;;;;;;;4.70;3.15;;;8.50;76.60;;;;;;6125208;22;92422;-71
2022/03/07 10:32:00;;;;;;;4.70;3.30;;;8.50;76.20;;;;;;6099051;23;92917;-71
2022/03/07 10:34:28;;;;;;;4.88;3.40;;;8.60;76.30;;;;;;6123564;23;92790;-71
2022/03/07 10:36:55;;;;;;;4.60;3.97;;;8.80;75.80;;;;;;6124812;22;98699;-71
2022/03/07 10:39:25;;;;;;;5.85;3.75;;;9.00;74.80;;;;;;6124858;22;92406;-71
2022/03/07 10:41:52;;;;;;;5.90;3.78;;;9.00;73.80;;;;;;6123759;23;93257;-75
2022/03/07 10:44:40;;;;;;;5.70;3.97;;;9.10;72.90;;;;;;6124254;23;92940;-73
2022/03/07 10:47:10;;;;;;;5.60;3.50;;;9.30;72.50;;;;;;6125926;22;92302;-73
2022/03/07 10:49:55;;;;;;;5.00;3.40;;;9.20;72.00;;;;;;6125544;23;92484;-69
2022/03/07 10:52:23;;;;;;;4.88;3.25;;;9.20;70.60;;;;;;6121889;23;97981;-73
2022/03/07 10:54:51;;;;;;;5.00;3.08;;;9.20;70.70;;;;;;6123568;23;97954;-73
2022/03/07 10:57:21;;;;;;;9.07;3.20;;;9.20;71.10;;;;;;6125192;23;92327;-69
2022/03/07 10:59:48;;;;;;;5.13;3.33;;;9.10;70.30;;;;;;6125075;22;92456;-69
2022/03/07 11:02:17;;;;;;;5.63;3.33;;;9.20;70.30;;;;;;6098083;23;95874;-74
2022/03/07 11:04:48;;;;;;;6.97;3.42;;;9.20;70.80;;;;;;6124873;22;92992;-73
2022/03/07 11:07:15;;;;;;;5.25;3.67;;;9.30;70.80;;;;;;6123967;23;92484;-74
2022/03/07 11:09:43;;;;;;;7.10;3.00;;;9.40;70.20;;;;;;6124443;23;91671;-73
2022/03/07 11:12:14;;;;;;;3.90;3.50;;;9.40;69.40;;;;;;6124709;22;93220;-74
2022/03/07 11:14:42;;;;;;;3.90;2.40;;;9.40;68.70;;;;;;6123613;23;95398;-69
2022/03/07 11:17:16;;;;;;;3.40;2.20;;;9.30;67.00;;;;;;6096946;23;94834;-69
2022/03/07 11:19:46;;;;;;;5.68;2.88;;;9.20;67.20;;;;;;6124889;22;92290;-69
2022/03/07 11:22:15;;;;;;;3.65;2.50;;;9.30;67.40;;;;;;6123338;23;93181;-73
2022/03/07 11:24:43;;;;;;;2.55;2.35;;;9.30;66.60;;;;;;6124653;22;102264;-69
2022/03/07 11:27:10;;;;;;;3.90;2.50;;;9.40;66.70;;;;;;6125264;22;93249;-74
2022/03/07 11:29:40;;;;;;;5.78;2.60;;;9.40;65.90;;;;;;6098770;23;92464;-74
2022/03/07 11:32:13;;;;;;;5.65;2.33;;;9.40;66.00;;;;;;6125066;22;92813;-69
2022/03/07 11:34:55;;;;;;;3.55;2.20;;;9.20;65.40;;;;;;6125420;22;93021;-74
2022/03/07 11:37:23;;;;;;;2.67;2.10;;;9.30;65.80;;;;;;6124135;23;92486;-74
2022/03/07 11:39:52;;;;;;;4.15;2.03;;;9.30;65.60;;;;;;6125071;23;92501;-69
2022/03/07 11:42:20;;;;;;;2.42;1.90;;;9.40;64.50;;;;;;6124049;22;96147;-69
2022/03/07 11:44:48;;;;;;;2.40;2.20;;;9.30;64.30;;;;;;6124189;23;94179;-69
2022/03/07 11:47:20;;;;;;;2.55;1.98;;;9.20;64.30;;;;;;6126481;22;92365;-73
2022/03/07 11:49:59;;;;;;;5.43;2.20;;;9.30;64.50;;;;;;6125192;23;92967;-74
2022/03/07 11:52:26;;;;;;;3.38;2.22;;;9.30;63.70;;;;;;6123781;23;92948;-74
2022/03/07 11:54:55;;;;;;;2.83;2.53;;;9.40;64.90;;;;;;6100089;23;93316;-69
2022/03/07 11:57:39;;;;;;;3.45;2.10;;;9.50;65.90;;;;;;6126430;22;92399;-73
2022/03/07 12:00:12;;;;;;;3.47;2.20;;;9.60;64.00;;;;;;6125758;23;91613;-74
2022/03/07 12:02:41;;;;;;;4.40;2.15;;;9.60;62.30;;;;;;6125840;22;93270;-69
2022/03/07 12:05:20;;;;;;;3.10;1.80;;;9.70;62.40;;;;;;6124409;23;100969;-74
2022/03/07 12:07:47;;;;;;;3.55;3.13;;;9.70;59.90;;;;;;6123161;23;94760;-69
2022/03/07 12:10:14;;;;;;;2.88;2.10;;;9.60;59.90;;;;;;6124377;23;92458;-70
2022/03/07 12:12:41;;;;;;;2.28;1.90;;;9.50;60.30;;;;;;6123536;23;95269;-70
2022/03/07 12:15:28;;;;;;;1.80;1.70;;;9.20;60.00;;;;;;6123860;23;95576;-69
2022/03/07 12:17:56;;;;;;;3.13;1.80;;;9.20;59.90;;;;;;6124101;23;92472;-69
2022/03/07 12:20:23;;;;;;;1.60;1.50;;;9.30;60.20;;;;;;6125628;22;92431;-69
2022/03/07 12:22:50;;;;;;;2.00;1.80;;;9.30;59.60;;;;;;6124426;23;93673;-73
2022/03/07 12:25:19;;;;;;;2.15;1.88;;;9.40;59.40;;;;;;6126338;22;92851;-69
2022/03/07 12:27:56;;;;;;;2.67;1.75;;;9.50;60.00;;;;;;6123919;23;92465;-69
2022/03/07 12:30:24;;;;;;;2.53;2.17;;;9.60;60.30;;;;;;6124376;23;92371;-69
2022/03/07 12:32:51;;;;;;;2.90;2.03;;;9.70;60.70;;;;;;6123758;22;101325;-69
2022/03/07 12:35:18;;;;;;;4.47;1.92;;;9.70;59.30;;;;;;6125776;22;95240;-73
2022/03/07 12:37:45;;;;;;;2.47;1.95;;;9.60;60.00;;;;;;6126331;23;92408;-74
2022/03/07 12:40:12;;;;;;;3.30;2.20;;;9.70;60.50;;;;;;6126820;23;92380;-74
2022/03/07 12:42:43;;;;;;;4.68;2.38;;;9.80;60.40;;;;;;6125522;23;93343;-70
2022/03/07 12:45:10;;;;;;;3.20;1.83;;;9.90;60.40;;;;;;6125507;22;92765;-69
2022/03/07 12:47:38;;;;;;;2.65;1.75;;;9.90;57.00;;;;;;6099015;23;92354;-69
2022/03/07 12:50:09;;;;;;;3.92;1.98;;;9.80;56.80;;;;;;6126156;22;91677;-69